sensor_id;sensor_type;location;lat;lon;timestamp;temperature;humidity
32839;DHT22;19182;41.820;12.808;2023-08-17T00:00:31;20.60;99.90
32839;DHT22;19182;41.820;12.808;2023-08-17T00:02:56;20.80;99.90
32839;DHT22;19182;41.820;12.808;2023-08-17T00:05:23;20.80;99.90
32839;DHT22;19182;41.820;12.808;2023-08-17T00:07:48;20.70;99.90
32839;DHT22;19182;41.820;12.808;2023-08-17T00:10:14;20.80;99.90
32839;DHT22;19182;41.820;12.808;2023-08-17T00:12:42;20.70;99.90
32839;DHT22;19182;41.820;12.808;2023-08-17T00:15:09;20.40;99.90
32839;DHT22;19182;41.820;12.808;2023-08-17T00:17:34;20.30;99.90
32839;DHT22;19182;41.820;12.808;2023-08-17T00:20:00;20.30;99.90
32839;DHT22;19182;41.820;12.808;2023-08-17T00:22:27;20.30;99.90
32839;DHT22;19182;41.820;12.808;2023-08-17T00:24:53;20.30;99.90
32839;DHT22;19182;41.820;12.808;2023-08-17T00:27:18;20.20;99.90
32839;DHT22;19182;41.820;12.808;2023-08-17T00:29:44;20.10;99.90
32839;DHT22;19182;41.820;12.808;2023-08-17T00:32:10;20.00;99.90
32839;DHT22;19182;41.820;12.808;2023-08-17T00:34:35;19.90;99.90
32839;DHT22;19182;41.820;12.808;2023-08-17T00:37:01;20.10;99.90
32839;DHT22;19182;41.820;12.808;2023-08-17T00:39:27;20.20;99.90
32839;DHT22;19182;41.820;12.808;2023-08-17T00:41:52;20.30;99.90
32839;DHT22;19182;41.820;12.808;2023-08-17T00:44:18;20.10;99.90
32839;DHT22;19182;41.820;12.808;2023-08-17T00:46:44;20.00;99.90
32839;DHT22;19182;41.820;12.808;2023-08-17T00:49:10;20.00;99.90
32839;DHT22;19182;41.820;12.808;2023-08-17T00:51:36;19.90;99.90
32839;DHT22;19182;41.820;12.808;2023-08-17T00:54:02;19.90;99.90
32839;DHT22;19182;41.820;12.808;2023-08-17T00:56:29;20.10;99.90
32839;DHT22;19182;41.820;12.808;2023-08-17T00:58:55;20.10;99.90
32839;DHT22;19182;41.820;12.808;2023-08-17T01:01:22;20.20;99.90
32839;DHT22;19182;41.820;12.808;2023-08-17T01:03:48;20.10;99.90
32839;DHT22;19182;41.820;12.808;2023-08-17T01:06:14;20.10;99.90
32839;DHT22;19182;41.820;12.808;2023-08-17T01:08:40;20.20;99.90
32839;DHT22;19182;41.820;12.808;2023-08-17T01:11:28;20.30;99.90
32839;DHT22;19182;41.820;12.808;2023-08-17T01:14:27;20.10;99.90
32839;DHT22;19182;41.820;12.808;2023-08-17T01:17:12;20.10;99.90
32839;DHT22;19182;41.820;12.808;2023-08-17T01:19:40;20.00;99.90
32839;DHT22;19182;41.820;12.808;2023-08-17T01:22:08;19.90;99.90
32839;DHT22;19182;41.820;12.808;2023-08-17T01:24:36;20.10;99.90
32839;DHT22;19182;41.820;12.808;2023-08-17T01:27:02;20.20;99.90
32839;DHT22;19182;41.820;12.808;2023-08-17T01:29:27;20.10;99.90
32839;DHT22;19182;41.820;12.808;2023-08-17T01:32:04;20.10;99.90
32839;DHT22;19182;41.820;12.808;2023-08-17T01:34:38;20.20;99.90
32839;DHT22;19182;41.820;12.808;2023-08-17T01:37:07;20.30;99.90
32839;DHT22;19182;41.820;12.808;2023-08-17T01:39:39;20.40;99.90
32839;DHT22;19182;41.820;12.808;2023-08-17T01:42:09;20.40;99.90
32839;DHT22;19182;41.820;12.808;2023-08-17T01:44:36;20.50;99.90
32839;DHT22;19182;41.820;12.808;2023-08-17T01:47:03;20.50;99.90
32839;DHT22;19182;41.820;12.808;2023-08-17T01:49:30;20.50;99.90
32839;DHT22;19182;41.820;12.808;2023-08-17T01:51:56;20.30;99.90
32839;DHT22;19182;41.820;12.808;2023-08-17T01:54:22;20.20;99.90
32839;DHT22;19182;41.820;12.808;2023-08-17T01:56:48;20.30;99.90
32839;DHT22;19182;41.820;12.808;2023-08-17T01:59:14;20.40;99.90
32839;DHT22;19182;41.820;12.808;2023-08-17T02:01:40;20.40;99.90
32839;DHT22;19182;41.820;12.808;2023-08-17T02:04:06;20.20;99.90
32839;DHT22;19182;41.820;12.808;2023-08-17T02:06:32;20.10;99.90
32839;DHT22;19182;41.820;12.808;2023-08-17T02:08:59;20.10;99.90
32839;DHT22;19182;41.820;12.808;2023-08-17T02:11:24;20.10;99.90
32839;DHT22;19182;41.820;12.808;2023-08-17T02:13:50;20.10;99.90
32839;DHT22;19182;41.820;12.808;2023-08-17T02:16:16;20.10;99.90
32839;DHT22;19182;41.820;12.808;2023-08-17T02:18:41;20.10;99.90
32839;DHT22;19182;41.820;12.808;2023-08-17T02:21:07;20.30;99.90
32839;DHT22;19182;41.820;12.808;2023-08-17T02:23:34;20.20;99.90
32839;DHT22;19182;41.820;12.808;2023-08-17T02:26:00;19.90;99.90
32839;DHT22;19182;41.820;12.808;2023-08-17T02:28:26;20.00;99.90
32839;DHT22;19182;41.820;12.808;2023-08-17T02:30:56;19.90;99.90
32839;DHT22;19182;41.820;12.808;2023-08-17T02:33:22;19.90;99.90
32839;DHT22;19182;41.820;12.808;2023-08-17T02:35:49;19.90;99.90
32839;DHT22;19182;41.820;12.808;2023-08-17T02:38:14;19.90;99.90
32839;DHT22;19182;41.820;12.808;2023-08-17T02:40:40;19.80;99.90
32839;DHT22;19182;41.820;12.808;2023-08-17T02:43:06;19.90;99.90
32839;DHT22;19182;41.820;12.808;2023-08-17T02:45:33;19.90;99.90
32839;DHT22;19182;41.820;12.808;2023-08-17T02:47:59;19.70;99.90
32839;DHT22;19182;41.820;12.808;2023-08-17T02:50:25;19.60;99.90
32839;DHT22;19182;41.820;12.808;2023-08-17T02:52:51;19.70;99.90
32839;DHT22;19182;41.820;12.808;2023-08-17T02:55:17;19.60;99.90
32839;DHT22;19182;41.820;12.808;2023-08-17T02:57:42;19.70;99.90
32839;DHT22;19182;41.820;12.808;2023-08-17T03:00:08;19.70;99.90
32839;DHT22;19182;41.820;12.808;2023-08-17T03:02:35;19.70;99.90
32839;DHT22;19182;41.820;12.808;2023-08-17T03:05:02;19.70;99.90
32839;DHT22;19182;41.820;12.808;2023-08-17T03:07:28;19.70;99.90
32839;DHT22;19182;41.820;12.808;2023-08-17T03:09:55;19.80;99.90
32839;DHT22;19182;41.820;12.808;2023-08-17T03:12:21;19.80;99.90
32839;DHT22;19182;41.820;12.808;2023-08-17T03:14:47;19.80;99.90
32839;DHT22;19182;41.820;12.808;2023-08-17T03:17:12;19.70;99.90
32839;DHT22;19182;41.820;12.808;2023-08-17T03:19:38;19.70;99.90
32839;DHT22;19182;41.820;12.808;2023-08-17T03:22:04;19.60;99.90
32839;DHT22;19182;41.820;12.808;2023-08-17T03:24:29;19.70;99.90
32839;DHT22;19182;41.820;12.808;2023-08-17T03:26:55;19.70;99.90
32839;DHT22;19182;41.820;12.808;2023-08-17T03:29:21;19.60;99.90
32839;DHT22;19182;41.820;12.808;2023-08-17T03:31:48;19.70;99.90
32839;DHT22;19182;41.820;12.808;2023-08-17T03:34:15;19.70;99.90
32839;DHT22;19182;41.820;12.808;2023-08-17T03:36:41;19.70;99.90
32839;DHT22;19182;41.820;12.808;2023-08-17T03:39:08;19.60;99.90
32839;DHT22;19182;41.820;12.808;2023-08-17T03:41:33;19.50;99.90
32839;DHT22;19182;41.820;12.808;2023-08-17T03:44:02;19.50;99.90
32839;DHT22;19182;41.820;12.808;2023-08-17T03:46:32;19.40;99.90
32839;DHT22;19182;41.820;12.808;2023-08-17T03:48:59;19.40;99.90
32839;DHT22;19182;41.820;12.808;2023-08-17T03:51:25;19.40;99.90
32839;DHT22;19182;41.820;12.808;2023-08-17T03:53:51;19.40;99.90
32839;DHT22;19182;41.820;12.808;2023-08-17T03:56:19;19.20;99.90
32839;DHT22;19182;41.820;12.808;2023-08-17T03:58:46;17.40;99.90
32839;DHT22;19182;41.820;12.808;2023-08-17T04:03:39;19.30;99.90
32839;DHT22;19182;41.820;12.808;2023-08-17T04:06:06;19.20;99.90
32839;DHT22;19182;41.820;12.808;2023-08-17T04:08:32;19.20;99.90
32839;DHT22;19182;41.820;12.808;2023-08-17T04:13:27;19.10;99.90
32839;DHT22;19182;41.820;12.808;2023-08-17T04:15:53;19.20;99.90
32839;DHT22;19182;41.820;12.808;2023-08-17T04:18:18;19.10;99.90
32839;DHT22;19182;41.820;12.808;2023-08-17T04:20:44;19.20;99.90
32839;DHT22;19182;41.820;12.808;2023-08-17T04:23:10;19.30;99.90
32839;DHT22;19182;41.820;12.808;2023-08-17T04:25:35;19.40;99.90
32839;DHT22;19182;41.820;12.808;2023-08-17T04:28:01;19.40;99.90
32839;DHT22;19182;41.820;12.808;2023-08-17T04:30:27;19.50;99.90
32839;DHT22;19182;41.820;12.808;2023-08-17T04:32:53;19.50;99.90
32839;DHT22;19182;41.820;12.808;2023-08-17T04:35:20;19.30;99.90
32839;DHT22;19182;41.820;12.808;2023-08-17T04:37:45;19.50;99.90
32839;DHT22;19182;41.820;12.808;2023-08-17T04:40:13;19.30;99.90
32839;DHT22;19182;41.820;12.808;2023-08-17T04:42:40;19.40;99.90
32839;DHT22;19182;41.820;12.808;2023-08-17T04:45:07;19.30;99.90
32839;DHT22;19182;41.820;12.808;2023-08-17T04:47:34;19.40;99.90
32839;DHT22;19182;41.820;12.808;2023-08-17T04:50:00;19.60;99.90
32839;DHT22;19182;41.820;12.808;2023-08-17T04:52:27;19.50;99.90
32839;DHT22;19182;41.820;12.808;2023-08-17T04:54:52;19.60;99.90
32839;DHT22;19182;41.820;12.808;2023-08-17T04:57:18;19.60;99.90
32839;DHT22;19182;41.820;12.808;2023-08-17T04:59:44;19.60;99.90
32839;DHT22;19182;41.820;12.808;2023-08-17T05:02:10;19.70;99.90
32839;DHT22;19182;41.820;12.808;2023-08-17T05:04:37;19.60;99.90
32839;DHT22;19182;41.820;12.808;2023-08-17T05:07:05;19.50;99.90
32839;DHT22;19182;41.820;12.808;2023-08-17T05:09:34;19.90;99.90
32839;DHT22;19182;41.820;12.808;2023-08-17T05:12:00;19.70;99.90
32839;DHT22;19182;41.820;12.808;2023-08-17T05:14:25;19.60;99.90
32839;DHT22;19182;41.820;12.808;2023-08-17T05:16:51;19.80;99.90
32839;DHT22;19182;41.820;12.808;2023-08-17T05:19:17;19.90;99.90
32839;DHT22;19182;41.820;12.808;2023-08-17T05:21:43;20.00;99.90
32839;DHT22;19182;41.820;12.808;2023-08-17T05:24:09;20.20;99.90
32839;DHT22;19182;41.820;12.808;2023-08-17T05:29:00;20.40;99.90
32839;DHT22;19182;41.820;12.808;2023-08-17T05:31:26;20.40;99.90
32839;DHT22;19182;41.820;12.808;2023-08-17T05:33:53;20.50;99.90
32839;DHT22;19182;41.820;12.808;2023-08-17T05:36:19;20.80;99.90
32839;DHT22;19182;41.820;12.808;2023-08-17T05:38:45;20.90;99.90
32839;DHT22;19182;41.820;12.808;2023-08-17T05:41:10;21.10;99.90
32839;DHT22;19182;41.820;12.808;2023-08-17T05:43:36;21.10;99.90
32839;DHT22;19182;41.820;12.808;2023-08-17T05:46:02;21.30;99.90
32839;DHT22;19182;41.820;12.808;2023-08-17T05:48:29;21.40;99.90
32839;DHT22;19182;41.820;12.808;2023-08-17T05:50:57;21.40;99.90
32839;DHT22;19182;41.820;12.808;2023-08-17T05:53:23;21.40;99.90
32839;DHT22;19182;41.820;12.808;2023-08-17T05:55:50;21.50;99.90
32839;DHT22;19182;41.820;12.808;2023-08-17T05:58:17;21.50;99.90
32839;DHT22;19182;41.820;12.808;2023-08-17T06:00:43;21.70;99.90
32839;DHT22;19182;41.820;12.808;2023-08-17T06:03:09;21.80;99.90
32839;DHT22;19182;41.820;12.808;2023-08-17T06:05:36;21.90;99.90
32839;DHT22;19182;41.820;12.808;2023-08-17T06:08:01;22.00;99.90
32839;DHT22;19182;41.820;12.808;2023-08-17T06:10:27;22.20;99.90
32839;DHT22;19182;41.820;12.808;2023-08-17T06:12:54;22.40;99.90
32839;DHT22;19182;41.820;12.808;2023-08-17T06:15:20;22.50;99.90
32839;DHT22;19182;41.820;12.808;2023-08-17T06:17:46;22.80;99.90
32839;DHT22;19182;41.820;12.808;2023-08-17T06:20:12;23.20;99.90
32839;DHT22;19182;41.820;12.808;2023-08-17T06:22:38;23.40;99.90
32839;DHT22;19182;41.820;12.808;2023-08-17T06:25:06;23.70;99.90
32839;DHT22;19182;41.820;12.808;2023-08-17T06:27:35;23.90;99.90
32839;DHT22;19182;41.820;12.808;2023-08-17T06:30:05;24.30;99.90
32839;DHT22;19182;41.820;12.808;2023-08-17T06:32:33;25.10;99.90
32839;DHT22;19182;41.820;12.808;2023-08-17T06:34:59;26.20;99.90
32839;DHT22;19182;41.820;12.808;2023-08-17T06:37:25;27.20;99.90
32839;DHT22;19182;41.820;12.808;2023-08-17T06:39:52;27.90;99.90
32839;DHT22;19182;41.820;12.808;2023-08-17T06:42:17;28.80;99.90
32839;DHT22;19182;41.820;12.808;2023-08-17T06:44:43;29.30;99.90
32839;DHT22;19182;41.820;12.808;2023-08-17T06:47:09;29.80;99.90
32839;DHT22;19182;41.820;12.808;2023-08-17T06:49:35;30.10;99.90
32839;DHT22;19182;41.820;12.808;2023-08-17T06:52:01;29.90;99.90
32839;DHT22;19182;41.820;12.808;2023-08-17T06:54:26;29.70;99.90
32839;DHT22;19182;41.820;12.808;2023-08-17T06:56:54;29.70;99.90
32839;DHT22;19182;41.820;12.808;2023-08-17T06:59:19;29.60;99.90
32839;DHT22;19182;41.820;12.808;2023-08-17T07:01:45;29.20;99.90
32839;DHT22;19182;41.820;12.808;2023-08-17T07:04:11;29.30;99.90
32839;DHT22;19182;41.820;12.808;2023-08-17T07:06:38;29.40;99.90
32839;DHT22;19182;41.820;12.808;2023-08-17T07:09:06;29.80;99.90
32839;DHT22;19182;41.820;12.808;2023-08-17T07:11:32;29.90;99.90
32839;DHT22;19182;41.820;12.808;2023-08-17T07:13:57;30.10;99.90
32839;DHT22;19182;41.820;12.808;2023-08-17T07:16:25;30.30;99.90
32839;DHT22;19182;41.820;12.808;2023-08-17T07:18:50;30.30;99.90
32839;DHT22;19182;41.820;12.808;2023-08-17T07:21:17;30.40;99.90
32839;DHT22;19182;41.820;12.808;2023-08-17T07:23:45;30.20;99.90
32839;DHT22;19182;41.820;12.808;2023-08-17T07:26:12;30.00;99.90
32839;DHT22;19182;41.820;12.808;2023-08-17T07:28:39;30.10;99.90
32839;DHT22;19182;41.820;12.808;2023-08-17T07:31:05;30.10;99.90
32839;DHT22;19182;41.820;12.808;2023-08-17T07:33:31;30.10;99.90
32839;DHT22;19182;41.820;12.808;2023-08-17T07:35:57;30.20;99.90
32839;DHT22;19182;41.820;12.808;2023-08-17T07:38:24;28.90;99.90
32839;DHT22;19182;41.820;12.808;2023-08-17T07:40:49;30.00;99.90
32839;DHT22;19182;41.820;12.808;2023-08-17T07:43:15;30.10;99.90
32839;DHT22;19182;41.820;12.808;2023-08-17T07:45:41;30.10;99.90
32839;DHT22;19182;41.820;12.808;2023-08-17T07:48:06;30.30;99.90
32839;DHT22;19182;41.820;12.808;2023-08-17T07:50:34;30.60;99.90
32839;DHT22;19182;41.820;12.808;2023-08-17T07:52:59;30.60;99.90
32839;DHT22;19182;41.820;12.808;2023-08-17T07:55:26;30.70;99.90
32839;DHT22;19182;41.820;12.808;2023-08-17T07:57:52;30.90;99.90
32839;DHT22;19182;41.820;12.808;2023-08-17T08:00:18;31.00;99.90
32839;DHT22;19182;41.820;12.808;2023-08-17T08:02:44;31.20;99.90
32839;DHT22;19182;41.820;12.808;2023-08-17T08:05:09;31.30;99.90
32839;DHT22;19182;41.820;12.808;2023-08-17T08:07:37;31.40;99.90
32839;DHT22;19182;41.820;12.808;2023-08-17T08:10:02;31.30;99.90
32839;DHT22;19182;41.820;12.808;2023-08-17T08:12:30;31.40;99.90
32839;DHT22;19182;41.820;12.808;2023-08-17T08:14:57;31.70;99.90
32839;DHT22;19182;41.820;12.808;2023-08-17T08:17:22;31.80;99.90
32839;DHT22;19182;41.820;12.808;2023-08-17T08:19:48;32.00;99.90
32839;DHT22;19182;41.820;12.808;2023-08-17T08:22:16;31.70;99.90
32839;DHT22;19182;41.820;12.808;2023-08-17T08:24:42;31.70;99.90
32839;DHT22;19182;41.820;12.808;2023-08-17T08:27:08;31.80;99.90
32839;DHT22;19182;41.820;12.808;2023-08-17T08:29:34;32.20;99.90
32839;DHT22;19182;41.820;12.808;2023-08-17T08:32:00;32.20;99.90
32839;DHT22;19182;41.820;12.808;2023-08-17T08:34:28;32.30;99.90
32839;DHT22;19182;41.820;12.808;2023-08-17T08:36:54;32.50;99.90
32839;DHT22;19182;41.820;12.808;2023-08-17T08:39:20;32.40;99.90
32839;DHT22;19182;41.820;12.808;2023-08-17T08:41:46;32.40;99.90
32839;DHT22;19182;41.820;12.808;2023-08-17T08:44:12;32.70;99.90
32839;DHT22;19182;41.820;12.808;2023-08-17T08:46:42;32.60;99.90
32839;DHT22;19182;41.820;12.808;2023-08-17T08:49:10;32.70;99.90
32839;DHT22;19182;41.820;12.808;2023-08-17T08:51:42;32.70;99.90
32839;DHT22;19182;41.820;12.808;2023-08-17T08:54:12;32.70;99.90
32839;DHT22;19182;41.820;12.808;2023-08-17T08:56:42;33.00;99.90
32839;DHT22;19182;41.820;12.808;2023-08-17T08:59:09;33.10;99.90
32839;DHT22;19182;41.820;12.808;2023-08-17T09:01:36;33.30;99.90
32839;DHT22;19182;41.820;12.808;2023-08-17T09:04:04;33.50;99.90
32839;DHT22;19182;41.820;12.808;2023-08-17T09:06:30;33.60;99.90
32839;DHT22;19182;41.820;12.808;2023-08-17T09:08:57;31.10;99.90
32839;DHT22;19182;41.820;12.808;2023-08-17T09:11:24;33.90;99.90
32839;DHT22;19182;41.820;12.808;2023-08-17T09:13:53;34.00;99.90
32839;DHT22;19182;41.820;12.808;2023-08-17T09:16:19;34.00;99.90
32839;DHT22;19182;41.820;12.808;2023-08-17T09:18:46;34.00;99.90
32839;DHT22;19182;41.820;12.808;2023-08-17T09:21:35;34.00;99.90
32839;DHT22;19182;41.820;12.808;2023-08-17T09:24:03;34.10;99.90
32839;DHT22;19182;41.820;12.808;2023-08-17T09:26:32;34.10;99.90
32839;DHT22;19182;41.820;12.808;2023-08-17T09:28:59;34.10;99.90
32839;DHT22;19182;41.820;12.808;2023-08-17T09:31:25;33.90;99.90
32839;DHT22;19182;41.820;12.808;2023-08-17T09:33:51;34.10;99.90
32839;DHT22;19182;41.820;12.808;2023-08-17T09:36:21;34.40;99.90
32839;DHT22;19182;41.820;12.808;2023-08-17T09:38:50;36.30;99.90
32839;DHT22;19182;41.820;12.808;2023-08-17T09:41:18;34.50;99.90
32839;DHT22;19182;41.820;12.808;2023-08-17T09:43:44;34.80;99.90
32839;DHT22;19182;41.820;12.808;2023-08-17T09:46:11;34.90;99.90
32839;DHT22;19182;41.820;12.808;2023-08-17T09:48:37;34.70;99.90
32839;DHT22;19182;41.820;12.808;2023-08-17T09:51:03;34.70;99.90
32839;DHT22;19182;41.820;12.808;2023-08-17T09:53:35;34.80;99.90
32839;DHT22;19182;41.820;12.808;2023-08-17T09:56:02;35.00;99.90
32839;DHT22;19182;41.820;12.808;2023-08-17T09:58:29;35.30;99.90
32839;DHT22;19182;41.820;12.808;2023-08-17T10:00:55;35.50;99.90
32839;DHT22;19182;41.820;12.808;2023-08-17T10:03:23;35.40;99.90
32839;DHT22;19182;41.820;12.808;2023-08-17T10:05:59;35.50;99.90
32839;DHT22;19182;41.820;12.808;2023-08-17T10:08:25;35.60;99.90
32839;DHT22;19182;41.820;12.808;2023-08-17T10:10:55;35.40;99.90
32839;DHT22;19182;41.820;12.808;2023-08-17T10:13:27;35.50;99.90
32839;DHT22;19182;41.820;12.808;2023-08-17T10:16:06;35.50;99.90
32839;DHT22;19182;41.820;12.808;2023-08-17T10:18:54;35.60;99.90
32839;DHT22;19182;41.820;12.808;2023-08-17T10:21:31;35.80;99.90
32839;DHT22;19182;41.820;12.808;2023-08-17T10:23:57;35.80;99.90
32839;DHT22;19182;41.820;12.808;2023-08-17T10:26:25;35.70;99.90
32839;DHT22;19182;41.820;12.808;2023-08-17T10:28:51;35.70;99.90
32839;DHT22;19182;41.820;12.808;2023-08-17T10:31:17;36.00;99.90
32839;DHT22;19182;41.820;12.808;2023-08-17T10:33:46;36.30;99.90
32839;DHT22;19182;41.820;12.808;2023-08-17T10:36:14;36.40;99.90
32839;DHT22;19182;41.820;12.808;2023-08-17T10:38:40;36.20;99.90
32839;DHT22;19182;41.820;12.808;2023-08-17T10:41:14;36.40;99.90
32839;DHT22;19182;41.820;12.808;2023-08-17T10:43:57;36.50;99.90
32839;DHT22;19182;41.820;12.808;2023-08-17T10:46:37;36.30;99.90
32839;DHT22;19182;41.820;12.808;2023-08-17T10:49:06;36.40;99.90
32839;DHT22;19182;41.820;12.808;2023-08-17T10:51:33;36.60;99.90
32839;DHT22;19182;41.820;12.808;2023-08-17T10:54:02;36.40;99.90
32839;DHT22;19182;41.820;12.808;2023-08-17T10:56:30;36.40;99.90
32839;DHT22;19182;41.820;12.808;2023-08-17T10:59:00;36.60;99.90
32839;DHT22;19182;41.820;12.808;2023-08-17T11:01:35;36.50;99.90
32839;DHT22;19182;41.820;12.808;2023-08-17T11:04:16;36.90;99.90
32839;DHT22;19182;41.820;12.808;2023-08-17T11:06:45;36.80;99.90
32839;DHT22;19182;41.820;12.808;2023-08-17T11:09:11;36.70;99.90
32839;DHT22;19182;41.820;12.808;2023-08-17T11:11:37;36.90;99.90
32839;DHT22;19182;41.820;12.808;2023-08-17T11:14:04;36.60;99.90
32839;DHT22;19182;41.820;12.808;2023-08-17T11:16:30;36.60;99.90
32839;DHT22;19182;41.820;12.808;2023-08-17T11:18:56;36.50;99.90
32839;DHT22;19182;41.820;12.808;2023-08-17T11:21:24;36.70;99.90
32839;DHT22;19182;41.820;12.808;2023-08-17T11:23:50;36.90;99.90
32839;DHT22;19182;41.820;12.808;2023-08-17T11:26:17;37.30;99.90
32839;DHT22;19182;41.820;12.808;2023-08-17T11:28:44;37.40;99.90
32839;DHT22;19182;41.820;12.808;2023-08-17T11:31:12;37.60;99.90
32839;DHT22;19182;41.820;12.808;2023-08-17T11:33:39;37.40;99.20
32839;DHT22;19182;41.820;12.808;2023-08-17T11:36:07;37.40;98.70
32839;DHT22;19182;41.820;12.808;2023-08-17T11:38:38;37.20;97.60
32839;DHT22;19182;41.820;12.808;2023-08-17T11:41:04;37.20;98.40
32839;DHT22;19182;41.820;12.808;2023-08-17T11:43:31;37.60;98.80
32839;DHT22;19182;41.820;12.808;2023-08-17T11:45:58;37.70;98.10
32839;DHT22;19182;41.820;12.808;2023-08-17T11:48:24;37.80;97.30
32839;DHT22;19182;41.820;12.808;2023-08-17T11:50:52;37.80;97.00
32839;DHT22;19182;41.820;12.808;2023-08-17T11:53:17;37.80;95.30
32839;DHT22;19182;41.820;12.808;2023-08-17T11:55:43;37.30;93.80
32839;DHT22;19182;41.820;12.808;2023-08-17T11:58:09;37.50;94.10
32839;DHT22;19182;41.820;12.808;2023-08-17T12:00:36;37.50;94.60
32839;DHT22;19182;41.820;12.808;2023-08-17T12:03:04;37.50;95.20
32839;DHT22;19182;41.820;12.808;2023-08-17T12:05:32;37.60;93.90
32839;DHT22;19182;41.820;12.808;2023-08-17T12:07:59;37.40;93.40
32839;DHT22;19182;41.820;12.808;2023-08-17T12:10:31;37.50;92.90
32839;DHT22;19182;41.820;12.808;2023-08-17T12:13:01;37.60;91.80
32839;DHT22;19182;41.820;12.808;2023-08-17T12:15:31;37.30;92.60
32839;DHT22;19182;41.820;12.808;2023-08-17T12:17:59;37.30;92.70
32839;DHT22;19182;41.820;12.808;2023-08-17T12:20:26;37.30;93.20
32839;DHT22;19182;41.820;12.808;2023-08-17T12:22:53;37.40;92.70
32839;DHT22;19182;41.820;12.808;2023-08-17T12:25:23;37.30;93.10
32839;DHT22;19182;41.820;12.808;2023-08-17T12:27:49;37.30;94.00
32839;DHT22;19182;41.820;12.808;2023-08-17T12:30:33;37.40;93.40
32839;DHT22;19182;41.820;12.808;2023-08-17T12:33:01;37.60;93.60
32839;DHT22;19182;41.820;12.808;2023-08-17T12:35:28;37.50;98.70
32839;DHT22;19182;41.820;12.808;2023-08-17T12:37:54;37.60;99.10
32839;DHT22;19182;41.820;12.808;2023-08-17T12:40:20;37.50;95.70
32839;DHT22;19182;41.820;12.808;2023-08-17T12:42:46;37.50;94.90
32839;DHT22;19182;41.820;12.808;2023-08-17T12:45:13;37.40;93.60
32839;DHT22;19182;41.820;12.808;2023-08-17T12:47:39;37.10;96.50
32839;DHT22;19182;41.820;12.808;2023-08-17T12:50:07;37.20;96.80
32839;DHT22;19182;41.820;12.808;2023-08-17T12:52:34;37.40;94.70
32839;DHT22;19182;41.820;12.808;2023-08-17T12:55:00;37.40;94.60
32839;DHT22;19182;41.820;12.808;2023-08-17T12:57:25;37.30;95.30
32839;DHT22;19182;41.820;12.808;2023-08-17T12:59:52;37.40;95.40
32839;DHT22;19182;41.820;12.808;2023-08-17T13:02:20;37.20;93.80
32839;DHT22;19182;41.820;12.808;2023-08-17T13:04:45;37.20;96.10
32839;DHT22;19182;41.820;12.808;2023-08-17T13:07:12;37.10;94.20
32839;DHT22;19182;41.820;12.808;2023-08-17T13:09:38;36.90;94.60
32839;DHT22;19182;41.820;12.808;2023-08-17T13:12:04;37.00;93.20
32839;DHT22;19182;41.820;12.808;2023-08-17T13:14:30;36.90;94.20
32839;DHT22;19182;41.820;12.808;2023-08-17T13:16:56;36.80;93.70
32839;DHT22;19182;41.820;12.808;2023-08-17T13:19:22;36.90;94.90
32839;DHT22;19182;41.820;12.808;2023-08-17T13:21:49;36.80;94.20
32839;DHT22;19182;41.820;12.808;2023-08-17T13:24:16;36.80;95.00
32839;DHT22;19182;41.820;12.808;2023-08-17T13:26:43;36.40;97.90
32839;DHT22;19182;41.820;12.808;2023-08-17T13:29:10;36.50;99.90
32839;DHT22;19182;41.820;12.808;2023-08-17T13:31:36;36.60;99.90
32839;DHT22;19182;41.820;12.808;2023-08-17T13:34:02;36.50;99.90
32839;DHT22;19182;41.820;12.808;2023-08-17T13:36:27;36.30;99.90
32839;DHT22;19182;41.820;12.808;2023-08-17T13:38:53;36.10;99.90
32839;DHT22;19182;41.820;12.808;2023-08-17T13:41:19;36.00;99.90
32839;DHT22;19182;41.820;12.808;2023-08-17T13:43:45;35.90;99.90
32839;DHT22;19182;41.820;12.808;2023-08-17T13:46:12;35.90;99.90
32839;DHT22;19182;41.820;12.808;2023-08-17T13:48:40;35.70;99.90
32839;DHT22;19182;41.820;12.808;2023-08-17T13:51:06;35.70;99.90
32839;DHT22;19182;41.820;12.808;2023-08-17T13:54:00;35.70;99.90
32839;DHT22;19182;41.820;12.808;2023-08-17T13:56:26;35.80;99.90
32839;DHT22;19182;41.820;12.808;2023-08-17T13:58:52;35.80;99.90
32839;DHT22;19182;41.820;12.808;2023-08-17T14:01:18;35.70;99.90
32839;DHT22;19182;41.820;12.808;2023-08-17T14:03:45;35.40;99.90
32839;DHT22;19182;41.820;12.808;2023-08-17T14:06:11;35.40;99.90
32839;DHT22;19182;41.820;12.808;2023-08-17T14:08:37;35.30;99.90
32839;DHT22;19182;41.820;12.808;2023-08-17T14:11:02;35.10;99.90
32839;DHT22;19182;41.820;12.808;2023-08-17T14:13:28;35.00;99.90
32839;DHT22;19182;41.820;12.808;2023-08-17T14:15:54;35.00;99.90
32839;DHT22;19182;41.820;12.808;2023-08-17T14:18:21;34.90;99.90
32839;DHT22;19182;41.820;12.808;2023-08-17T14:20:47;34.80;99.90
32839;DHT22;19182;41.820;12.808;2023-08-17T14:23:14;34.80;99.90
32839;DHT22;19182;41.820;12.808;2023-08-17T14:25:41;34.70;99.90
32839;DHT22;19182;41.820;12.808;2023-08-17T14:28:08;34.60;99.90
32839;DHT22;19182;41.820;12.808;2023-08-17T14:30:35;34.40;99.90
32839;DHT22;19182;41.820;12.808;2023-08-17T14:33:02;34.30;99.90
32839;DHT22;19182;41.820;12.808;2023-08-17T14:35:28;34.30;99.90
32839;DHT22;19182;41.820;12.808;2023-08-17T14:37:54;34.20;99.90
32839;DHT22;19182;41.820;12.808;2023-08-17T14:40:23;34.00;99.90
32839;DHT22;19182;41.820;12.808;2023-08-17T14:42:49;33.90;99.90
32839;DHT22;19182;41.820;12.808;2023-08-17T14:45:14;33.90;99.90
32839;DHT22;19182;41.820;12.808;2023-08-17T14:47:40;33.90;99.90
32839;DHT22;19182;41.820;12.808;2023-08-17T14:50:07;33.70;99.90
32839;DHT22;19182;41.820;12.808;2023-08-17T14:52:34;33.90;99.90
32839;DHT22;19182;41.820;12.808;2023-08-17T14:55:01;33.80;99.90
32839;DHT22;19182;41.820;12.808;2023-08-17T14:57:28;33.70;99.90
32839;DHT22;19182;41.820;12.808;2023-08-17T14:59:53;33.60;99.90
32839;DHT22;19182;41.820;12.808;2023-08-17T15:02:19;33.60;99.90
32839;DHT22;19182;41.820;12.808;2023-08-17T15:04:45;33.60;99.90
32839;DHT22;19182;41.820;12.808;2023-08-17T15:07:11;33.60;99.90
32839;DHT22;19182;41.820;12.808;2023-08-17T15:09:38;33.60;99.90
32839;DHT22;19182;41.820;12.808;2023-08-17T15:12:04;33.50;99.90
32839;DHT22;19182;41.820;12.808;2023-08-17T15:14:30;33.50;99.90
32839;DHT22;19182;41.820;12.808;2023-08-17T15:16:56;33.40;99.90
32839;DHT22;19182;41.820;12.808;2023-08-17T15:19:22;33.20;99.90
32839;DHT22;19182;41.820;12.808;2023-08-17T15:21:49;33.30;99.90